Kezdőlap
METAR-TAF:

METAR-TAF

Repülőterek :

Karacsi, Pakisztán

földrajzi szélesség: 24-54N, földrajzi hosszúság: 067-08E, magasság: 21 m

Jelenlegi meteorológiai megfigyelések

A jelentés 57 perccel ezelõtt készült, 19:59 UTC
Nyugati szél 8 kt
Hőmérséklet 25°C
Páratartalom 61%
Légköri nyomás 1014 hPa
Látótávolság: 6000 m

METAR: OPKC 231959Z 27008KT 6000 NSC 25/17 Q1014 NOSIG

Idő: 01:56 (20:56 UTC)

Előrejelzés

A jelentés 2 órával és 26 perccel ezelõtt készült, 18:30 UTC
Az előrejelzés 23-én 21 óra UTC és 24-én 06 óra UTC között érvényes
Nyugati szél 7 kt széllökések: 17 kt
Látótávolság: 6000 m
Szórványos felhőzet 10000 lábon
24-én 00 óra UTC és 24-én 04 óra UTC között ideiglenes
Északnyugati szél 10 kt
Látótávolság: 4000 m
Kevés felhő 4000 lábon
Szórványos felhőzet 10000 lábon
füst

TAF: OPKC 231830Z 2321/2406 26007G17KT 6000 SCT100 TEMPO 2400/2404 32010KT 4000 FU FEW040 SCT100

Meteorológiai megfigyelések és előrejelzések több, mint 4000 repülőtéren (METAR és TAF jelentéseket).

A térképen piros és sárga pontok jelzik az elérhető meteorológiai állomásokat.

Mozgassa az egeret a pont fölött, hogy megjelenjen az állomás neve.

Azután kattintson az időjárási megfigyelések és előrejelzések megtekintéséhez.

A térkép megváltoztatása: kattintson a fekete keresztel jelölt zöld gombra ráközelítéshez, a vonallal jelölt zöld gombra távolításhoz, vagy a zöld nyilakra a szomszédos térképek eléréséhez.


METAR-TAF: